Time;durP1;ratioP1;P1;durP2;ratioP2;P2;SDS_P1;SDS_P2;PMS_P1;PMS_P2;Temp;Humidity;BMP_temperature;BMP_pressure;BME280_temperature;BME280_humidity;BME280_pressure;Samples;Min_cycle;Max_cycle;Signal;HPM_P1;HPM_P2
2021/08/11 00:02:59;;;;;;;;;;;;;;;;;;;;;
2021/08/11 00:10:00;;;;;;;;;;;;;;;;;;;;;
2021/08/11 00:20:45;;;;;;;9.77;8.77;;;15.70;91.70;;;;;;6085412;23;20323;-91
2021/08/11 00:48:14;;;;;;;;;;;;;;;;;;;;;
2021/08/11 01:15:49;;;;;;;;;;;;;;;;;;;;;
2021/08/11 02:02:21;;;;;;;8.48;7.68;;;14.80;92.10;;;;;;5919227;24;20101;-91
2021/08/11 02:40:37;;;;;;;;;;;;;;;;;;;;;
2021/08/11 02:54:51;;;;;;;;;;;;;;;;;;;;;
2021/08/11 03:04:41;;;;;;;;;;;;;;;;;;;;;
2021/08/11 03:39:55;;;;;;;;;;;;;;;;;;;;;
2021/08/11 03:47:18;;;;;;;;;;;;;;;;;;;;;
2021/08/11 03:49:51;;;;;;;;;;;;;;;;;;;;;
2021/08/11 04:17:15;;;;;;;;;;;;;;;;;;;;;
2021/08/11 04:20:24;;;;;;;;;;;;;;;;;;;;;
2021/08/11 04:49:04;;;;;;;;;;;;;;;;;;;;;
2021/08/11 06:59:39;;;;;;;;;;;;;;;;;;;;;
2021/08/11 07:06:03;;;;;;;;;;;;;;;;;;;;;
2021/08/11 07:26:33;;;;;;;;;;;;;;;;;;;;;
2021/08/11 07:44:05;;;;;;;10.25;8.70;;;17.50;94.50;;;;;;5901808;24;20146;-93
2021/08/11 07:47:42;;;;;;;;;;;;;;;;;;;;;
2021/08/11 08:11:31;;;;;;;9.15;7.28;;;18.20;93.80;;;;;;6108428;23;20390;-93
2021/08/11 08:18:20;;;;;;;;;;;;;;;;;;;;;
2021/08/11 08:21:57;;;;;;;;;;;;;;;;;;;;;
2021/08/11 08:43:22;;;;;;;;;;;;;;;;;;;;;
2021/08/11 08:47:26;;;;;;;;;;;;;;;;;;;;;
2021/08/11 08:57:35;;;;;;;;;;;;;;;;;;;;;
2021/08/11 09:00:58;;;;;;;;;;;;;;;;;;;;;
2021/08/11 09:26:31;;;;;;;;;;;;;;;;;;;;;
2021/08/11 09:54:49;;;;;;;10.43;8.02;;;20.40;91.00;;;;;;5765874;24;20042;-93
2021/08/11 09:58:08;;;;;;;;;;;;;;;;;;;;;
2021/08/11 10:08:18;;;;;;;8.18;7.30;;;20.70;90.60;;;;;;6042726;23;20605;-92
2021/08/11 10:11:46;;;;;;;;;;;;;;;;;;;;;
2021/08/11 10:28:59;;;;;;;;;;;;;;;;;;;;;
2021/08/11 11:04:06;;;;;;;3.80;3.30;;;21.80;87.80;;;;;;5981545;23;20035;-88
2021/08/11 11:07:26;;;;;;;4.22;3.58;;;21.90;87.50;;;;;;6054053;22;20022;-90
2021/08/11 11:13:33;;;;;;;5.38;4.68;;;22.00;86.50;;;;;;6075804;23;20017;-90
2021/08/11 11:16:25;;;;;;;;;;;;;;;;;;;;;
2021/08/11 11:19:17;;;;;;;5.55;4.75;;;22.00;86.10;;;;;;6281157;22;20048;-89
2021/08/11 11:21:42;;;;;;;8.23;5.20;;;22.00;85.70;;;;;;6253127;22;20139;-89
2021/08/11 11:25:09;;;;;;;6.18;5.00;;;22.10;85.30;;;;;;6254862;22;19996;-88
2021/08/11 11:27:40;;;;;;;4.70;4.05;;;22.00;85.20;;;;;;6187075;23;20052;-89
2021/08/11 11:30:32;;;;;;;6.45;4.80;;;22.00;85.10;;;;;;6187813;23;20009;-90
2021/08/11 11:33:33;;;;;;;;;;;;;;;;;;;;;
2021/08/11 11:36:48;;;;;;;5.63;4.13;;;22.00;85.00;;;;;;6282521;22;20027;-89
2021/08/11 11:39:42;;;;;;;;;;;;;;;;;;;;;
2021/08/11 11:42:18;;;;;;;;;;;;;;;;;;;;;
2021/08/11 11:45:22;;;;;;;4.68;3.90;;;22.10;84.70;;;;;;6251210;22;20110;-90
2021/08/11 11:47:56;;;;;;;4.72;4.10;;;22.20;84.30;;;;;;6255177;22;20012;-89
2021/08/11 11:50:24;;;;;;;3.95;3.55;;;22.20;83.70;;;;;;6254501;22;20011;-89
2021/08/11 11:53:23;;;;;;;5.45;4.32;;;22.20;83.60;;;;;;6281940;22;20441;-89
2021/08/11 11:55:54;;;;;;;4.28;3.88;;;22.30;83.40;;;;;;6234314;22;20107;-89
2021/08/11 11:58:24;;;;;;;4.50;4.10;;;22.30;83.70;;;;;;6282452;22;20015;-89
2021/08/11 12:01:13;;;;;;;5.63;4.78;;;22.30;83.80;;;;;;6255396;22;20007;-89
2021/08/11 12:04:07;;;;;;;4.35;3.95;;;22.40;83.00;;;;;;6231762;22;20010;-89
2021/08/11 12:06:47;;;;;;;;;;;;;;;;;;;;;
2021/08/11 12:09:21;;;;;;;5.43;4.88;;;22.40;82.30;;;;;;6255923;22;20051;-89
2021/08/11 12:11:57;;;;;;;;;;;;;;;;;;;;;
2021/08/11 12:14:26;;;;;;;4.82;4.32;;;22.50;82.00;;;;;;6279695;22;20066;-89
2021/08/11 12:17:06;;;;;;;5.30;4.78;;;22.50;81.90;;;;;;6252928;22;20007;-89
2021/08/11 12:22:52;;;;;;;5.47;4.80;;;22.60;81.60;;;;;;6232705;22;20063;-88
2021/08/11 12:25:36;;;;;;;5.60;4.97;;;22.60;81.10;;;;;;6233738;22;20000;-88
2021/08/11 12:28:31;;;;;;;6.32;4.70;;;22.60;80.40;;;;;;6252666;22;20008;-89
2021/08/11 12:31:32;;;;;;;;;;;;;;;;;;;;;
2021/08/11 12:34:05;;;;;;;;;;;22.60;78.80;;;;;;6280260;22;20075;-92
2021/08/11 12:37:05;;;;;;;4.78;4.15;;;22.60;79.30;;;;;;6252857;22;19903;-90
2021/08/11 12:39:47;;;;;;;5.10;4.60;;;22.60;79.70;;;;;;6269010;22;20000;-89
2021/08/11 12:42:13;;;;;;;4.90;4.10;;;22.70;80.10;;;;;;6228747;22;20027;-88
2021/08/11 12:47:58;;;;;;;5.00;4.13;;;22.70;80.00;;;;;;6256851;22;20436;-90
2021/08/11 12:50:33;;;;;;;3.92;3.53;;;22.80;79.10;;;;;;6254771;22;20003;-89
2021/08/11 12:54:03;;;;;;;4.00;3.60;;;22.80;79.00;;;;;;6248899;22;20007;-89
2021/08/11 13:03:09;;;;;;;;;;;;;;;;;;;;;
2021/08/11 13:05:48;;;;;;;4.68;4.00;;;22.90;78.00;;;;;;6278818;22;20110;-91
2021/08/11 13:08:41;;;;;;;4.57;4.03;;;23.00;78.10;;;;;;6252785;22;20377;-90
2021/08/11 13:12:15;;;;;;;;;;;;;;;;;;;;;
2021/08/11 13:15:14;;;;;;;5.35;4.00;;;22.90;78.30;;;;;;6186655;23;20089;-89
2021/08/11 13:18:06;;;;;;;5.95;4.25;;;22.90;77.60;;;;;;6187616;23;20148;-90
2021/08/11 13:20:49;;;;;;;4.25;3.85;;;23.00;77.50;;;;;;6273618;22;20030;-92
2021/08/11 13:23:50;;;;;;;;;;;;;;;;;;;;;
2021/08/11 13:26:31;;;;;;;;;;;;;;;;;;;;;
2021/08/11 13:29:07;;;;;;;4.28;3.33;;;23.10;76.60;;;;;;6285957;22;20030;-90
2021/08/11 13:31:48;;;;;;;;;;;;;;;;;;;;;
2021/08/11 13:34:20;;;;;;;4.18;3.38;;;23.10;76.60;;;;;;6282314;22;20035;-89
2021/08/11 13:37:02;;;;;;;3.45;3.15;;;23.20;75.80;;;;;;6288905;22;20007;-90
2021/08/11 13:39:57;;;;;;;4.78;3.35;;;23.20;75.40;;;;;;6262202;22;20003;-89
2021/08/11 13:42:49;;;;;;;6.18;3.92;;;23.20;74.70;;;;;;6255837;22;20000;-90
2021/08/11 13:45:20;;;;;;;4.00;3.22;;;23.20;74.50;;;;;;6258426;22;20007;-89
2021/08/11 13:48:06;;;;;;;4.25;3.10;;;23.20;74.00;;;;;;6257481;22;20057;-90
2021/08/11 13:50:57;;;;;;;3.30;2.95;;;23.20;73.70;;;;;;6262776;22;20007;-90
2021/08/11 13:53:26;;;;;;;3.95;3.10;;;23.30;73.30;;;;;;6211476;22;20014;-90
2021/08/11 13:56:32;;;;;;;5.18;2.70;;;23.30;73.00;;;;;;6261147;22;20008;-90
2021/08/11 13:58:58;;;;;;;3.72;3.33;;;23.40;72.60;;;;;;6261800;22;20062;-88
2021/08/11 14:01:29;;;;;;;3.47;2.97;;;23.40;72.60;;;;;;6261867;22;20004;-89
2021/08/11 14:03:58;;;;;;;4.00;3.00;;;23.40;72.40;;;;;;6239961;22;20141;-89
2021/08/11 14:06:34;;;;;;;;;;;;;;;;;;;;;
2021/08/11 14:09:06;;;;;;;3.42;3.00;;;23.40;72.80;;;;;;6283375;22;20057;-89
2021/08/11 14:11:55;;;;;;;3.03;2.67;;;23.40;73.00;;;;;;6281644;22;20003;-89
2021/08/11 14:14:38;;;;;;;4.05;3.30;;;23.40;72.60;;;;;;6286685;22;20004;-91
2021/08/11 14:17:16;;;;;;;4.00;2.80;;;23.40;72.80;;;;;;6261628;22;20004;-89
2021/08/11 14:20:03;;;;;;;4.03;3.13;;;23.40;72.90;;;;;;6256778;22;20003;-89
2021/08/11 14:22:45;;;;;;;4.72;2.50;;;23.40;72.80;;;;;;6232030;22;20004;-88
2021/08/11 14:28:55;;;;;;;3.35;2.63;;;23.30;72.80;;;;;;6264092;22;20015;-91
2021/08/11 14:31:40;;;;;;;3.10;2.35;;;23.30;72.60;;;;;;6255267;22;20000;-89
2021/08/11 14:34:31;;;;;;;3.40;2.80;;;23.30;72.40;;;;;;6254534;22;20003;-90
2021/08/11 14:37:28;;;;;;;2.90;2.45;;;23.30;71.70;;;;;;6254192;22;20008;-89
2021/08/11 14:40:17;;;;;;;3.38;3.08;;;23.30;71.20;;;;;;6230463;22;20082;-91
2021/08/11 14:43:01;;;;;;;;;;;;;;;;;;;;;
2021/08/11 14:45:39;;;;;;;2.85;2.42;;;23.40;70.20;;;;;;6257326;22;20083;-91
2021/08/11 14:48:22;;;;;;;;;;;;;;;;;;;;;
2021/08/11 14:50:51;;;;;;;4.00;2.78;;;23.40;69.80;;;;;;6256352;22;20075;-87
2021/08/11 14:53:22;;;;;;;3.80;3.10;;;23.40;68.90;;;;;;6254196;22;20004;-87
2021/08/11 14:56:10;;;;;;;4.35;2.70;;;23.40;68.70;;;;;;6253346;22;20364;-89
2021/08/11 14:58:45;;;;;;;3.88;2.75;;;23.50;68.80;;;;;;6255656;22;20330;-87
2021/08/11 15:01:24;;;;;;;3.20;2.90;;;23.40;69.10;;;;;;6255427;22;19999;-89
2021/08/11 15:03:52;;;;;;;2.72;2.25;;;23.40;68.90;;;;;;6254887;22;20004;-88
2021/08/11 15:06:21;;;;;;;3.22;2.55;;;23.40;68.20;;;;;;6228793;22;20014;-87
2021/08/11 15:08:56;;;;;;;3.03;2.50;;;23.40;68.20;;;;;;6252773;22;20011;-88
2021/08/11 15:11:48;;;;;;;;;;;;;;;;;;;;;
2021/08/11 15:14:15;;;;;;;3.83;2.60;;;23.40;68.50;;;;;;6254174;22;20036;-87
2021/08/11 15:17:09;;;;;;;2.95;2.65;;;23.30;69.50;;;;;;6279140;22;20003;-88
2021/08/11 15:22:55;;;;;;;3.17;2.88;;;23.30;69.70;;;;;;6258518;22;20061;-89
2021/08/11 15:25:50;;;;;;;2.90;2.50;;;23.30;69.50;;;;;;6278904;22;20002;-89
2021/08/11 15:28:41;;;;;;;3.38;2.90;;;23.30;68.70;;;;;;6221129;23;20014;-89
2021/08/11 15:31:14;;;;;;;3.65;2.42;;;23.40;69.10;;;;;;6220017;23;20004;-89
2021/08/11 15:33:54;;;;;;;5.13;2.88;;;23.30;69.10;;;;;;6221654;23;20007;-89
2021/08/11 15:36:24;;;;;;;3.70;2.67;;;23.30;69.10;;;;;;6248381;23;20485;-88
2021/08/11 15:38:58;;;;;;;;;;;23.30;69.00;;;;;;6221226;23;20058;-89
2021/08/11 15:41:42;;;;;;;5.07;2.83;;;23.30;69.10;;;;;;6248532;23;19948;-89
2021/08/11 15:44:13;;;;;;;3.25;2.45;;;23.30;68.60;;;;;;6221075;23;20107;-89
2021/08/11 15:46:45;;;;;;;3.85;2.58;;;23.30;68.40;;;;;;6220287;23;20103;-89
2021/08/11 15:49:52;;;;;;;2.72;2.30;;;23.30;68.80;;;;;;6222046;23;20007;-88
2021/08/11 15:52:21;;;;;;;3.90;2.75;;;23.30;69.60;;;;;;6223253;23;20008;-89
2021/08/11 15:54:52;;;;;;;4.22;2.97;;;23.30;69.30;;;;;;6247040;23;20000;-86
2021/08/11 15:57:25;;;;;;;3.70;2.42;;;23.30;68.70;;;;;;6247221;23;20074;-87
2021/08/11 16:00:07;;;;;;;;;;;;;;;;;;;;;
2021/08/11 16:03:01;;;;;;;3.30;2.75;;;23.30;68.80;;;;;;6247570;23;20079;-87
2021/08/11 16:06:04;;;;;;;3.67;2.33;;;23.30;67.90;;;;;;6221773;23;20087;-87
2021/08/11 16:09:02;;;;;;;;;;;;;;;;;;;;;
2021/08/11 16:11:51;;;;;;;2.92;2.22;;;23.30;68.20;;;;;;6247171;23;20075;-88
2021/08/11 16:14:27;;;;;;;3.85;2.30;;;23.30;68.40;;;;;;6201080;23;20004;-90
2021/08/11 16:17:05;;;;;;;3.90;2.80;;;23.40;68.50;;;;;;6221010;23;20501;-89
2021/08/11 16:19:51;;;;;;;3.83;2.65;;;23.30;68.50;;;;;;6246970;23;20513;-90
2021/08/11 16:22:30;;;;;;;3.58;2.30;;;23.30;67.80;;;;;;6198997;23;20004;-89
2021/08/11 16:25:21;;;;;;;;;;;;;;;;;;;;;
2021/08/11 16:28:05;;;;;;;2.42;2.15;;;23.30;66.80;;;;;;6247055;23;20054;-89
2021/08/11 16:30:39;;;;;;;2.60;2.35;;;23.40;67.50;;;;;;6245608;23;20012;-88
2021/08/11 16:33:13;;;;;;;2.55;2.30;;;23.40;67.80;;;;;;6222986;23;20008;-87
2021/08/11 16:35:52;;;;;;;;;;;;;;;;;;;;;
2021/08/11 16:38:47;;;;;;;;;;;;;;;;;;;;;
2021/08/11 16:41:47;;;;;;;2.83;2.30;;;23.30;69.00;;;;;;6248217;23;20462;-88
2021/08/11 16:44:33;;;;;;;2.72;2.17;;;23.30;69.30;;;;;;6249400;23;20039;-89
2021/08/11 16:47:15;;;;;;;4.85;2.53;;;23.30;69.10;;;;;;6221837;23;20019;-90
2021/08/11 16:50:03;;;;;;;;;;;;;;;;;;;;;
2021/08/11 16:52:41;;;;;;;3.28;2.22;;;23.20;69.70;;;;;;6250326;23;20032;-88
2021/08/11 16:55:17;;;;;;;3.10;2.10;;;23.20;69.70;;;;;;6220825;23;20004;-88
2021/08/11 16:57:59;;;;;;;2.58;2.28;;;23.20;69.50;;;;;;6250841;23;20031;-88
2021/08/11 17:00:27;;;;;;;2.38;2.00;;;23.20;69.60;;;;;;6221704;23;20007;-90
2021/08/11 17:03:36;;;;;;;4.00;2.78;;;23.20;69.90;;;;;;6221058;23;20019;-87
2021/08/11 17:06:28;;;;;;;;;;;;;;;;;;;;;
2021/08/11 17:08:56;;;;;;;3.03;2.20;;;23.10;70.00;;;;;;6252033;23;20019;-88
2021/08/11 17:11:22;;;;;;;3.38;2.58;;;23.10;70.50;;;;;;6226745;23;20030;-91
2021/08/11 17:14:36;;;;;;;;;;;;;;;;;;;;;
2021/08/11 17:17:33;;;;;;;;;;;;;;;;;;;;;
2021/08/11 17:20:48;;;;;;;3.03;2.05;;;23.00;70.40;;;;;;6250732;23;20019;-89
2021/08/11 17:24:18;;;;;;;;;;;;;;;;;;;;;
2021/08/11 17:27:25;;;;;;;;;;;;;;;;;;;;;
2021/08/11 17:30:28;;;;;;;3.47;2.17;;;22.90;71.20;;;;;;6213895;23;20083;-88
2021/08/11 17:32:57;;;;;;;2.47;2.10;;;22.80;71.50;;;;;;6197096;23;20008;-90
2021/08/11 17:35:26;;;;;;;2.72;2.28;;;22.80;71.80;;;;;;6251258;23;20019;-90
2021/08/11 17:38:14;;;;;;;;;;;;;;;;;;;;;
2021/08/11 17:41:22;;;;;;;;;;;;;;;;;;;;;
2021/08/11 17:44:02;;;;;;;;;;;;;;;;;;;;;
2021/08/11 17:47:16;;;;;;;;;;;;;;;;;;;;;
2021/08/11 17:50:05;;;;;;;4.38;2.60;;;22.60;73.00;;;;;;6250007;23;20036;-90
2021/08/11 17:52:57;;;;;;;2.45;2.22;;;22.50;72.80;;;;;;6224085;23;20078;-90
2021/08/11 17:55:27;;;;;;;2.60;2.22;;;22.50;73.10;;;;;;6248712;23;20150;-89
2021/08/11 17:57:58;;;;;;;;;;;22.40;73.40;;;;;;6248517;23;20008;-90
2021/08/11 18:01:00;;;;;;;2.85;2.17;;;22.40;73.40;;;;;;6248301;23;19907;-89
2021/08/11 18:04:01;;;;;;;;;;;;;;;;;;;;;
2021/08/11 18:09:59;;;;;;;2.17;1.98;;;22.20;73.80;;;;;;6249993;23;20012;-89
2021/08/11 18:12:33;;;;;;;2.85;2.25;;;22.20;74.10;;;;;;6223668;23;20000;-89
2021/08/11 18:15:09;;;;;;;3.42;2.50;;;22.10;74.30;;;;;;6248979;23;20004;-91
2021/08/11 18:18:00;;;;;;;;;;;;;;;;;;;;;
2021/08/11 18:20:38;;;;;;;2.85;2.33;;;22.00;75.00;;;;;;6250624;23;20016;-90
2021/08/11 18:23:33;;;;;;;2.50;2.17;;;22.00;75.50;;;;;;6225239;23;20004;-92
2021/08/11 18:29:02;;;;;;;2.35;2.15;;;21.90;76.50;;;;;;6240463;23;20345;-89
2021/08/11 18:31:46;;;;;;;3.33;2.70;;;21.80;76.80;;;;;;6249615;23;20004;-90
2021/08/11 18:34:22;;;;;;;3.55;2.78;;;21.80;77.00;;;;;;6250593;23;20322;-89
2021/08/11 18:36:59;;;;;;;2.80;2.45;;;21.70;76.80;;;;;;6226932;23;20325;-90
2021/08/11 18:39:51;;;;;;;4.90;2.60;;;21.60;77.60;;;;;;6251232;23;20004;-90
2021/08/11 18:42:19;;;;;;;2.83;2.50;;;21.50;77.20;;;;;;6224355;23;20000;-90
